CheckWX is a tool to help pilots better visualize weather data.  It is not intended as a substitute for an official pre-flight weather briefing.

13:58:05 UTC

57C METAR
East Troy Municipal Airport
East Troy, Wisconsin, USA
Current

23 mins ago

K57C 211335Z AUTO 18004KT 10SM CLR 22/21 A3006 RMK AO2 T02150208
Observed
Sep-21 @ 13:35 UTC
Wind
  • 180° at 4 KTS
Visibility
10 SM
Flight Rules
VFR
Cloud Levels
  • Clear skies
Temperature
22°C / 72°F
Dewpoint
21°C / 70°F
Humidity
94%
Altimeter
30.06" Hg
Pressure
1017.92 hPa
Previous

43 mins ago

K57C 211315Z AUTO 18005KT 10SM CLR 21/21 A3005 RMK AO2 T02100207
Observed
Sep-21 @ 13:15 UTC
Wind
  • 180° at 5 KTS
Visibility
10 SM
Flight Rules
VFR
Cloud Levels
  • Clear skies
Temperature
21°C / 70°F
Dewpoint
21°C / 70°F
Humidity
100%
Altimeter
30.05" Hg
Pressure
1017.62 hPa
Previous

1 hour ago

K57C 211255Z AUTO 17004KT 10SM CLR 21/21 A3006 RMK AO2 T02070206
Observed
Sep-21 @ 12:55 UTC
Wind
  • 170° at 4 KTS
Visibility
10 SM
Flight Rules
VFR
Cloud Levels
  • Clear skies
Temperature
21°C / 70°F
Dewpoint
21°C / 70°F
Humidity
100%
Altimeter
30.06" Hg
Pressure
1017.92 hPa